sensor_id;sensor_type;location;lat;lon;timestamp;P1;durP1;ratioP1;P2;durP2;ratioP2
70385;SDS011;63206;55.650;37.500;2023-02-15T00:01:36;6.00;;;1.63;;
70385;SDS011;63206;55.650;37.500;2023-02-15T00:04:06;6.15;;;1.38;;
70385;SDS011;63206;55.650;37.500;2023-02-15T00:06:37;3.88;;;1.40;;
70385;SDS011;63206;55.650;37.500;2023-02-15T00:09:09;4.55;;;1.50;;
70385;SDS011;63206;55.650;37.500;2023-02-15T00:11:35;9.48;;;1.55;;
70385;SDS011;63206;55.650;37.500;2023-02-15T00:14:18;1.95;;;1.17;;
70385;SDS011;63206;55.650;37.500;2023-02-15T00:16:47;1.88;;;1.08;;
70385;SDS011;63206;55.650;37.500;2023-02-15T00:19:14;2.72;;;1.33;;
70385;SDS011;63206;55.650;37.500;2023-02-15T00:21:43;2.45;;;1.23;;
70385;SDS011;63206;55.650;37.500;2023-02-15T00:24:13;3.90;;;1.13;;
70385;SDS011;63206;55.650;37.500;2023-02-15T00:26:45;2.95;;;1.08;;
70385;SDS011;63206;55.650;37.500;2023-02-15T00:29:12;2.95;;;0.98;;
70385;SDS011;63206;55.650;37.500;2023-02-15T00:31:41;7.57;;;1.30;;
70385;SDS011;63206;55.650;37.500;2023-02-15T00:34:10;5.50;;;1.30;;
70385;SDS011;63206;55.650;37.500;2023-02-15T00:36:40;2.05;;;1.00;;
70385;SDS011;63206;55.650;37.500;2023-02-15T00:39:12;3.22;;;1.17;;
70385;SDS011;63206;55.650;37.500;2023-02-15T00:41:38;3.70;;;1.30;;
70385;SDS011;63206;55.650;37.500;2023-02-15T00:44:07;5.07;;;1.30;;
70385;SDS011;63206;55.650;37.500;2023-02-15T00:46:33;6.32;;;1.42;;
70385;SDS011;63206;55.650;37.500;2023-02-15T00:49:02;4.50;;;1.40;;
70385;SDS011;63206;55.650;37.500;2023-02-15T00:51:29;5.15;;;1.42;;
70385;SDS011;63206;55.650;37.500;2023-02-15T00:53:58;2.28;;;0.90;;
70385;SDS011;63206;55.650;37.500;2023-02-15T00:56:28;3.80;;;1.40;;
70385;SDS011;63206;55.650;37.500;2023-02-15T00:58:54;4.00;;;1.63;;
70385;SDS011;63206;55.650;37.500;2023-02-15T01:03:54;3.30;;;1.30;;
70385;SDS011;63206;55.650;37.500;2023-02-15T01:06:23;3.67;;;1.17;;
70385;SDS011;63206;55.650;37.500;2023-02-15T01:08:58;4.78;;;1.60;;
70385;SDS011;63206;55.650;37.500;2023-02-15T01:11:24;6.80;;;1.48;;
70385;SDS011;63206;55.650;37.500;2023-02-15T01:13:53;4.03;;;1.42;;
70385;SDS011;63206;55.650;37.500;2023-02-15T01:16:25;6.30;;;1.58;;
70385;SDS011;63206;55.650;37.500;2023-02-15T01:18:54;5.32;;;1.52;;
70385;SDS011;63206;55.650;37.500;2023-02-15T01:21:26;4.85;;;1.58;;
70385;SDS011;63206;55.650;37.500;2023-02-15T01:24:01;5.50;;;1.23;;
70385;SDS011;63206;55.650;37.500;2023-02-15T01:26:36;3.25;;;1.50;;
70385;SDS011;63206;55.650;37.500;2023-02-15T01:29:02;3.55;;;1.55;;
70385;SDS011;63206;55.650;37.500;2023-02-15T01:31:28;4.10;;;1.38;;
70385;SDS011;63206;55.650;37.500;2023-02-15T01:33:56;4.40;;;1.25;;
70385;SDS011;63206;55.650;37.500;2023-02-15T01:36:25;5.35;;;1.40;;
70385;SDS011;63206;55.650;37.500;2023-02-15T01:38:51;7.38;;;1.60;;
70385;SDS011;63206;55.650;37.500;2023-02-15T01:41:17;5.40;;;1.45;;
70385;SDS011;63206;55.650;37.500;2023-02-15T01:43:56;3.58;;;1.17;;
70385;SDS011;63206;55.650;37.500;2023-02-15T01:46:35;5.47;;;2.03;;
70385;SDS011;63206;55.650;37.500;2023-02-15T01:49:13;2.22;;;1.27;;
70385;SDS011;63206;55.650;37.500;2023-02-15T01:51:41;3.80;;;1.17;;
70385;SDS011;63206;55.650;37.500;2023-02-15T01:56:39;2.17;;;1.00;;
70385;SDS011;63206;55.650;37.500;2023-02-15T01:59:09;2.85;;;1.25;;
70385;SDS011;63206;55.650;37.500;2023-02-15T02:01:37;4.30;;;1.23;;
70385;SDS011;63206;55.650;37.500;2023-02-15T02:04:15;4.75;;;1.20;;
70385;SDS011;63206;55.650;37.500;2023-02-15T02:06:47;7.32;;;1.75;;
70385;SDS011;63206;55.650;37.500;2023-02-15T02:09:17;7.95;;;1.63;;
70385;SDS011;63206;55.650;37.500;2023-02-15T02:11:48;5.18;;;1.40;;
70385;SDS011;63206;55.650;37.500;2023-02-15T02:14:17;5.35;;;1.45;;
70385;SDS011;63206;55.650;37.500;2023-02-15T02:16:53;4.32;;;1.33;;
70385;SDS011;63206;55.650;37.500;2023-02-15T02:27:12;4.03;;;1.10;;
70385;SDS011;63206;55.650;37.500;2023-02-15T02:40:54;4.68;;;1.40;;
70385;SDS011;63206;55.650;37.500;2023-02-15T02:43:31;3.35;;;1.38;;
70385;SDS011;63206;55.650;37.500;2023-02-15T02:46:46;6.22;;;1.33;;
70385;SDS011;63206;55.650;37.500;2023-02-15T02:48:53;6.47;;;1.50;;
70385;SDS011;63206;55.650;37.500;2023-02-15T02:51:19;3.60;;;1.25;;
70385;SDS011;63206;55.650;37.500;2023-02-15T02:53:51;3.92;;;1.20;;
70385;SDS011;63206;55.650;37.500;2023-02-15T02:56:29;3.70;;;1.20;;
70385;SDS011;63206;55.650;37.500;2023-02-15T02:59:03;4.70;;;1.60;;
70385;SDS011;63206;55.650;37.500;2023-02-15T03:01:37;3.20;;;1.48;;
70385;SDS011;63206;55.650;37.500;2023-02-15T03:04:10;6.20;;;1.80;;
70385;SDS011;63206;55.650;37.500;2023-02-15T03:06:41;5.32;;;1.65;;
70385;SDS011;63206;55.650;37.500;2023-02-15T03:09:11;4.90;;;1.55;;
70385;SDS011;63206;55.650;37.500;2023-02-15T03:11:47;4.35;;;1.50;;
70385;SDS011;63206;55.650;37.500;2023-02-15T03:14:14;2.83;;;1.50;;
70385;SDS011;63206;55.650;37.500;2023-02-15T03:16:42;6.60;;;1.90;;
70385;SDS011;63206;55.650;37.500;2023-02-15T03:19:24;3.15;;;1.38;;
70385;SDS011;63206;55.650;37.500;2023-02-15T03:21:55;4.78;;;1.83;;
70385;SDS011;63206;55.650;37.500;2023-02-15T03:24:58;6.68;;;1.60;;
70385;SDS011;63206;55.650;37.500;2023-02-15T03:27:22;6.18;;;1.70;;
70385;SDS011;63206;55.650;37.500;2023-02-15T03:29:51;6.53;;;1.75;;
70385;SDS011;63206;55.650;37.500;2023-02-15T03:32:20;7.55;;;1.75;;
70385;SDS011;63206;55.650;37.500;2023-02-15T03:34:47;3.30;;;1.50;;
70385;SDS011;63206;55.650;37.500;2023-02-15T03:37:25;5.22;;;1.90;;
70385;SDS011;63206;55.650;37.500;2023-02-15T03:45:23;6.35;;;1.63;;
70385;SDS011;63206;55.650;37.500;2023-02-15T03:47:50;3.72;;;1.50;;
70385;SDS011;63206;55.650;37.500;2023-02-15T03:50:18;6.38;;;1.63;;
70385;SDS011;63206;55.650;37.500;2023-02-15T03:53:07;6.55;;;1.55;;
70385;SDS011;63206;55.650;37.500;2023-02-15T03:55:35;7.90;;;1.92;;
70385;SDS011;63206;55.650;37.500;2023-02-15T03:58:04;4.47;;;1.30;;
70385;SDS011;63206;55.650;37.500;2023-02-15T04:00:54;3.80;;;1.38;;
70385;SDS011;63206;55.650;37.500;2023-02-15T04:03:48;3.85;;;1.27;;
70385;SDS011;63206;55.650;37.500;2023-02-15T04:06:23;5.82;;;1.60;;
70385;SDS011;63206;55.650;37.500;2023-02-15T04:08:51;3.88;;;1.40;;
70385;SDS011;63206;55.650;37.500;2023-02-15T04:11:36;4.43;;;1.67;;
70385;SDS011;63206;55.650;37.500;2023-02-15T04:14:02;4.28;;;1.60;;
70385;SDS011;63206;55.650;37.500;2023-02-15T04:16:48;5.10;;;1.58;;
70385;SDS011;63206;55.650;37.500;2023-02-15T04:19:20;2.33;;;1.23;;
70385;SDS011;63206;55.650;37.500;2023-02-15T04:22:04;4.25;;;1.38;;
70385;SDS011;63206;55.650;37.500;2023-02-15T04:24:52;4.57;;;1.63;;
70385;SDS011;63206;55.650;37.500;2023-02-15T04:27:40;4.38;;;1.30;;
70385;SDS011;63206;55.650;37.500;2023-02-15T04:30:06;4.38;;;1.70;;
70385;SDS011;63206;55.650;37.500;2023-02-15T04:32:38;3.92;;;1.40;;
70385;SDS011;63206;55.650;37.500;2023-02-15T04:35:05;4.97;;;1.40;;
70385;SDS011;63206;55.650;37.500;2023-02-15T04:37:33;3.45;;;1.13;;
70385;SDS011;63206;55.650;37.500;2023-02-15T04:40:05;4.57;;;1.77;;
70385;SDS011;63206;55.650;37.500;2023-02-15T04:42:37;5.93;;;1.77;;
70385;SDS011;63206;55.650;37.500;2023-02-15T04:45:08;5.45;;;1.40;;
70385;SDS011;63206;55.650;37.500;2023-02-15T04:47:34;4.28;;;1.48;;
70385;SDS011;63206;55.650;37.500;2023-02-15T04:50:03;5.85;;;1.45;;
70385;SDS011;63206;55.650;37.500;2023-02-15T04:52:30;3.30;;;1.33;;
70385;SDS011;63206;55.650;37.500;2023-02-15T04:55:02;4.70;;;1.60;;
70385;SDS011;63206;55.650;37.500;2023-02-15T04:57:30;5.20;;;1.60;;
70385;SDS011;63206;55.650;37.500;2023-02-15T04:59:59;6.45;;;1.65;;
70385;SDS011;63206;55.650;37.500;2023-02-15T05:02:28;6.53;;;1.70;;
70385;SDS011;63206;55.650;37.500;2023-02-15T05:04:57;3.40;;;1.63;;
70385;SDS011;63206;55.650;37.500;2023-02-15T05:07:25;4.40;;;1.67;;
70385;SDS011;63206;55.650;37.500;2023-02-15T05:09:51;6.07;;;1.50;;
70385;SDS011;63206;55.650;37.500;2023-02-15T05:12:20;5.10;;;1.85;;
70385;SDS011;63206;55.650;37.500;2023-02-15T05:14:46;5.38;;;1.50;;
70385;SDS011;63206;55.650;37.500;2023-02-15T05:17:15;3.35;;;1.40;;
70385;SDS011;63206;55.650;37.500;2023-02-15T05:19:43;4.60;;;1.52;;
70385;SDS011;63206;55.650;37.500;2023-02-15T05:22:09;5.65;;;1.67;;
70385;SDS011;63206;55.650;37.500;2023-02-15T05:24:38;5.70;;;1.90;;
70385;SDS011;63206;55.650;37.500;2023-02-15T05:27:25;4.40;;;1.63;;
70385;SDS011;63206;55.650;37.500;2023-02-15T05:30:10;4.50;;;1.55;;
70385;SDS011;63206;55.650;37.500;2023-02-15T05:32:37;5.13;;;1.60;;
70385;SDS011;63206;55.650;37.500;2023-02-15T05:35:04;4.53;;;1.52;;
70385;SDS011;63206;55.650;37.500;2023-02-15T05:37:31;6.22;;;1.67;;
70385;SDS011;63206;55.650;37.500;2023-02-15T05:39:57;4.85;;;1.55;;
70385;SDS011;63206;55.650;37.500;2023-02-15T05:42:25;7.00;;;2.00;;
70385;SDS011;63206;55.650;37.500;2023-02-15T05:44:54;3.83;;;1.50;;
70385;SDS011;63206;55.650;37.500;2023-02-15T05:47:20;5.40;;;1.42;;
70385;SDS011;63206;55.650;37.500;2023-02-15T05:49:49;6.82;;;2.05;;
70385;SDS011;63206;55.650;37.500;2023-02-15T05:52:18;7.43;;;2.70;;
70385;SDS011;63206;55.650;37.500;2023-02-15T05:54:50;5.13;;;1.95;;
70385;SDS011;63206;55.650;37.500;2023-02-15T05:57:16;4.75;;;1.90;;
70385;SDS011;63206;55.650;37.500;2023-02-15T05:59:42;6.63;;;2.13;;
70385;SDS011;63206;55.650;37.500;2023-02-15T06:02:11;3.47;;;1.52;;
70385;SDS011;63206;55.650;37.500;2023-02-15T06:07:10;5.38;;;1.98;;
70385;SDS011;63206;55.650;37.500;2023-02-15T06:09:45;6.63;;;1.85;;
70385;SDS011;63206;55.650;37.500;2023-02-15T06:12:18;4.95;;;2.03;;
70385;SDS011;63206;55.650;37.500;2023-02-15T06:14:50;6.25;;;2.10;;
70385;SDS011;63206;55.650;37.500;2023-02-15T06:17:19;9.45;;;2.83;;
70385;SDS011;63206;55.650;37.500;2023-02-15T06:19:49;7.13;;;2.50;;
70385;SDS011;63206;55.650;37.500;2023-02-15T06:22:18;8.55;;;3.30;;
70385;SDS011;63206;55.650;37.500;2023-02-15T06:24:49;9.98;;;3.92;;
70385;SDS011;63206;55.650;37.500;2023-02-15T06:27:15;6.45;;;2.25;;
70385;SDS011;63206;55.650;37.500;2023-02-15T06:29:50;8.45;;;2.47;;
70385;SDS011;63206;55.650;37.500;2023-02-15T06:32:21;8.32;;;2.40;;
70385;SDS011;63206;55.650;37.500;2023-02-15T06:34:47;6.97;;;2.50;;
70385;SDS011;63206;55.650;37.500;2023-02-15T06:37:13;6.57;;;2.33;;
70385;SDS011;63206;55.650;37.500;2023-02-15T06:39:39;6.60;;;2.20;;
70385;SDS011;63206;55.650;37.500;2023-02-15T06:42:05;9.80;;;2.65;;
70385;SDS011;63206;55.650;37.500;2023-02-15T06:44:31;8.73;;;2.75;;
70385;SDS011;63206;55.650;37.500;2023-02-15T06:47:00;6.97;;;2.17;;
70385;SDS011;63206;55.650;37.500;2023-02-15T06:49:28;10.77;;;2.60;;
70385;SDS011;63206;55.650;37.500;2023-02-15T06:51:54;8.70;;;2.20;;
70385;SDS011;63206;55.650;37.500;2023-02-15T06:54:26;12.18;;;2.45;;
70385;SDS011;63206;55.650;37.500;2023-02-15T06:56:58;8.20;;;2.35;;
70385;SDS011;63206;55.650;37.500;2023-02-15T06:59:26;5.45;;;1.95;;
70385;SDS011;63206;55.650;37.500;2023-02-15T07:01:57;7.82;;;2.30;;
70385;SDS011;63206;55.650;37.500;2023-02-15T07:07:00;5.18;;;2.20;;
70385;SDS011;63206;55.650;37.500;2023-02-15T07:09:32;9.13;;;2.20;;
70385;SDS011;63206;55.650;37.500;2023-02-15T07:11:58;6.80;;;2.35;;
70385;SDS011;63206;55.650;37.500;2023-02-15T07:14:48;6.03;;;2.30;;
70385;SDS011;63206;55.650;37.500;2023-02-15T07:17:16;7.32;;;1.92;;
70385;SDS011;63206;55.650;37.500;2023-02-15T07:19:49;7.25;;;1.95;;
70385;SDS011;63206;55.650;37.500;2023-02-15T07:22:15;9.10;;;2.90;;
70385;SDS011;63206;55.650;37.500;2023-02-15T07:24:41;7.10;;;2.40;;
70385;SDS011;63206;55.650;37.500;2023-02-15T07:27:12;5.78;;;2.13;;
70385;SDS011;63206;55.650;37.500;2023-02-15T07:29:41;8.35;;;2.10;;
70385;SDS011;63206;55.650;37.500;2023-02-15T07:32:16;7.18;;;2.10;;
70385;SDS011;63206;55.650;37.500;2023-02-15T07:34:42;7.80;;;2.10;;
70385;SDS011;63206;55.650;37.500;2023-02-15T07:37:08;5.45;;;1.98;;
70385;SDS011;63206;55.650;37.500;2023-02-15T07:39:39;9.18;;;2.20;;
70385;SDS011;63206;55.650;37.500;2023-02-15T07:42:08;8.63;;;2.50;;
70385;SDS011;63206;55.650;37.500;2023-02-15T07:44:35;5.22;;;2.10;;
70385;SDS011;63206;55.650;37.500;2023-02-15T07:47:04;8.55;;;2.50;;
70385;SDS011;63206;55.650;37.500;2023-02-15T07:49:33;8.27;;;2.30;;
70385;SDS011;63206;55.650;37.500;2023-02-15T07:52:07;6.65;;;2.17;;
70385;SDS011;63206;55.650;37.500;2023-02-15T07:54:36;6.38;;;2.35;;
70385;SDS011;63206;55.650;37.500;2023-02-15T07:57:04;6.30;;;2.28;;
70385;SDS011;63206;55.650;37.500;2023-02-15T07:59:33;8.60;;;2.20;;
70385;SDS011;63206;55.650;37.500;2023-02-15T08:02:08;5.57;;;1.90;;
70385;SDS011;63206;55.650;37.500;2023-02-15T08:04:36;10.05;;;2.50;;
70385;SDS011;63206;55.650;37.500;2023-02-15T08:07:05;5.93;;;2.38;;
70385;SDS011;63206;55.650;37.500;2023-02-15T08:09:35;7.53;;;2.40;;
70385;SDS011;63206;55.650;37.500;2023-02-15T08:12:06;6.20;;;2.28;;
70385;SDS011;63206;55.650;37.500;2023-02-15T08:14:35;8.68;;;2.70;;
70385;SDS011;63206;55.650;37.500;2023-02-15T08:17:06;9.38;;;2.80;;
70385;SDS011;63206;55.650;37.500;2023-02-15T08:19:35;9.52;;;2.78;;
70385;SDS011;63206;55.650;37.500;2023-02-15T08:22:11;10.88;;;3.00;;
70385;SDS011;63206;55.650;37.500;2023-02-15T08:24:43;8.98;;;2.90;;
70385;SDS011;63206;55.650;37.500;2023-02-15T08:29:40;8.82;;;3.10;;
70385;SDS011;63206;55.650;37.500;2023-02-15T08:32:08;8.80;;;2.17;;
70385;SDS011;63206;55.650;37.500;2023-02-15T08:34:37;9.75;;;2.75;;
70385;SDS011;63206;55.650;37.500;2023-02-15T08:37:09;7.18;;;2.83;;
70385;SDS011;63206;55.650;37.500;2023-02-15T08:39:40;9.38;;;2.78;;
70385;SDS011;63206;55.650;37.500;2023-02-15T08:42:16;7.15;;;2.50;;
70385;SDS011;63206;55.650;37.500;2023-02-15T08:44:42;6.53;;;2.20;;
70385;SDS011;63206;55.650;37.500;2023-02-15T08:47:14;9.65;;;2.30;;
70385;SDS011;63206;55.650;37.500;2023-02-15T08:49:39;7.05;;;2.38;;
70385;SDS011;63206;55.650;37.500;2023-02-15T08:52:14;6.45;;;2.30;;
70385;SDS011;63206;55.650;37.500;2023-02-15T08:54:45;5.55;;;2.35;;
70385;SDS011;63206;55.650;37.500;2023-02-15T08:57:20;7.55;;;2.28;;
70385;SDS011;63206;55.650;37.500;2023-02-15T08:59:53;4.60;;;2.30;;
70385;SDS011;63206;55.650;37.500;2023-02-15T09:02:26;5.85;;;2.08;;
70385;SDS011;63206;55.650;37.500;2023-02-15T09:04:54;6.30;;;2.25;;
70385;SDS011;63206;55.650;37.500;2023-02-15T09:07:23;7.82;;;2.55;;
70385;SDS011;63206;55.650;37.500;2023-02-15T09:09:51;5.97;;;1.92;;
70385;SDS011;63206;55.650;37.500;2023-02-15T09:12:26;4.85;;;1.88;;
70385;SDS011;63206;55.650;37.500;2023-02-15T09:14:52;7.68;;;2.30;;
70385;SDS011;63206;55.650;37.500;2023-02-15T09:17:23;5.55;;;1.85;;
70385;SDS011;63206;55.650;37.500;2023-02-15T09:19:54;8.90;;;2.25;;
70385;SDS011;63206;55.650;37.500;2023-02-15T09:22:24;6.40;;;2.00;;
70385;SDS011;63206;55.650;37.500;2023-02-15T09:24:53;5.50;;;1.92;;
70385;SDS011;63206;55.650;37.500;2023-02-15T09:27:19;3.70;;;1.48;;
70385;SDS011;63206;55.650;37.500;2023-02-15T09:29:50;4.53;;;1.65;;
70385;SDS011;63206;55.650;37.500;2023-02-15T09:32:16;5.82;;;2.15;;
70385;SDS011;63206;55.650;37.500;2023-02-15T09:34:48;4.57;;;1.90;;
70385;SDS011;63206;55.650;37.500;2023-02-15T09:37:17;6.15;;;2.08;;
70385;SDS011;63206;55.650;37.500;2023-02-15T09:39:46;11.32;;;2.20;;
70385;SDS011;63206;55.650;37.500;2023-02-15T09:47:25;6.13;;;2.03;;
70385;SDS011;63206;55.650;37.500;2023-02-15T09:52:38;6.60;;;2.15;;
70385;SDS011;63206;55.650;37.500;2023-02-15T09:55:15;6.20;;;2.17;;
70385;SDS011;63206;55.650;37.500;2023-02-15T10:06:11;5.13;;;2.00;;
70385;SDS011;63206;55.650;37.500;2023-02-15T10:27:22;6.90;;;1.90;;
70385;SDS011;63206;55.650;37.500;2023-02-15T10:30:34;6.60;;;2.35;;
70385;SDS011;63206;55.650;37.500;2023-02-15T10:33:41;6.15;;;2.20;;
70385;SDS011;63206;55.650;37.500;2023-02-15T10:38:48;7.50;;;2.40;;
70385;SDS011;63206;55.650;37.500;2023-02-15T10:55:10;5.57;;;2.00;;
70385;SDS011;63206;55.650;37.500;2023-02-15T11:00:32;4.50;;;1.80;;
70385;SDS011;63206;55.650;37.500;2023-02-15T11:03:29;5.20;;;1.83;;
70385;SDS011;63206;55.650;37.500;2023-02-15T11:06:07;6.13;;;1.80;;
70385;SDS011;63206;55.650;37.500;2023-02-15T11:08:45;5.35;;;1.95;;
70385;SDS011;63206;55.650;37.500;2023-02-15T11:11:34;4.95;;;1.77;;
70385;SDS011;63206;55.650;37.500;2023-02-15T11:16:48;7.50;;;2.10;;
70385;SDS011;63206;55.650;37.500;2023-02-15T11:19:28;5.70;;;2.00;;
70385;SDS011;63206;55.650;37.500;2023-02-15T11:22:01;5.53;;;2.10;;
70385;SDS011;63206;55.650;37.500;2023-02-15T11:24:30;4.68;;;1.42;;
70385;SDS011;63206;55.650;37.500;2023-02-15T11:27:00;3.92;;;1.70;;
70385;SDS011;63206;55.650;37.500;2023-02-15T11:29:37;8.13;;;3.35;;
70385;SDS011;63206;55.650;37.500;2023-02-15T11:34:49;5.10;;;2.17;;
70385;SDS011;63206;55.650;37.500;2023-02-15T11:43:11;5.38;;;1.67;;
70385;SDS011;63206;55.650;37.500;2023-02-15T11:45:46;5.32;;;2.15;;
70385;SDS011;63206;55.650;37.500;2023-02-15T11:48:15;6.35;;;2.25;;
70385;SDS011;63206;55.650;37.500;2023-02-15T11:50:41;7.22;;;2.17;;
70385;SDS011;63206;55.650;37.500;2023-02-15T11:53:14;6.90;;;2.25;;
70385;SDS011;63206;55.650;37.500;2023-02-15T11:55:47;4.80;;;1.90;;
70385;SDS011;63206;55.650;37.500;2023-02-15T11:58:39;6.60;;;2.13;;
70385;SDS011;63206;55.650;37.500;2023-02-15T12:01:14;4.78;;;1.80;;
70385;SDS011;63206;55.650;37.500;2023-02-15T12:08:57;9.05;;;2.60;;
70385;SDS011;63206;55.650;37.500;2023-02-15T12:11:37;5.45;;;1.98;;
70385;SDS011;63206;55.650;37.500;2023-02-15T12:14:07;5.13;;;1.70;;
70385;SDS011;63206;55.650;37.500;2023-02-15T12:16:55;7.47;;;2.20;;
70385;SDS011;63206;55.650;37.500;2023-02-15T12:21:51;6.38;;;1.95;;
70385;SDS011;63206;55.650;37.500;2023-02-15T12:26:59;5.45;;;2.17;;
70385;SDS011;63206;55.650;37.500;2023-02-15T12:29:42;4.32;;;1.80;;
70385;SDS011;63206;55.650;37.500;2023-02-15T12:32:58;5.43;;;2.00;;
70385;SDS011;63206;55.650;37.500;2023-02-15T12:38:32;5.90;;;1.60;;
70385;SDS011;63206;55.650;37.500;2023-02-15T12:41:01;4.03;;;1.83;;
70385;SDS011;63206;55.650;37.500;2023-02-15T12:43:36;6.30;;;2.00;;
70385;SDS011;63206;55.650;37.500;2023-02-15T12:46:22;5.20;;;1.90;;
70385;SDS011;63206;55.650;37.500;2023-02-15T12:54:38;4.72;;;1.67;;
70385;SDS011;63206;55.650;37.500;2023-02-15T12:57:21;6.07;;;1.90;;
70385;SDS011;63206;55.650;37.500;2023-02-15T13:00:00;5.65;;;1.88;;
70385;SDS011;63206;55.650;37.500;2023-02-15T13:02:45;3.75;;;1.58;;
70385;SDS011;63206;55.650;37.500;2023-02-15T13:08:22;3.45;;;1.40;;
70385;SDS011;63206;55.650;37.500;2023-02-15T13:10:56;5.32;;;1.65;;
70385;SDS011;63206;55.650;37.500;2023-02-15T13:13:26;3.63;;;1.65;;
70385;SDS011;63206;55.650;37.500;2023-02-15T13:15:58;5.20;;;1.92;;
70385;SDS011;63206;55.650;37.500;2023-02-15T13:18:35;7.28;;;2.10;;
70385;SDS011;63206;55.650;37.500;2023-02-15T13:21:14;5.47;;;2.17;;
70385;SDS011;63206;55.650;37.500;2023-02-15T13:23:44;4.38;;;1.60;;
70385;SDS011;63206;55.650;37.500;2023-02-15T13:26:23;5.28;;;1.77;;
70385;SDS011;63206;55.650;37.500;2023-02-15T13:29:03;4.65;;;1.63;;
70385;SDS011;63206;55.650;37.500;2023-02-15T13:31:36;6.80;;;2.20;;
70385;SDS011;63206;55.650;37.500;2023-02-15T13:34:12;5.82;;;2.08;;
70385;SDS011;63206;55.650;37.500;2023-02-15T13:36:55;3.95;;;1.70;;
70385;SDS011;63206;55.650;37.500;2023-02-15T13:48:04;4.25;;;1.90;;
70385;SDS011;63206;55.650;37.500;2023-02-15T13:55:50;4.32;;;1.50;;
70385;SDS011;63206;55.650;37.500;2023-02-15T13:58:21;5.50;;;1.98;;
70385;SDS011;63206;55.650;37.500;2023-02-15T14:01:01;6.97;;;2.30;;
70385;SDS011;63206;55.650;37.500;2023-02-15T14:03:41;4.90;;;1.77;;
70385;SDS011;63206;55.650;37.500;2023-02-15T14:06:31;6.28;;;1.92;;
70385;SDS011;63206;55.650;37.500;2023-02-15T14:11:44;4.75;;;1.63;;
70385;SDS011;63206;55.650;37.500;2023-02-15T14:14:28;3.25;;;1.77;;
70385;SDS011;63206;55.650;37.500;2023-02-15T14:17:06;3.35;;;1.60;;
70385;SDS011;63206;55.650;37.500;2023-02-15T14:19:44;5.22;;;1.70;;
70385;SDS011;63206;55.650;37.500;2023-02-15T14:25:33;3.85;;;1.88;;
70385;SDS011;63206;55.650;37.500;2023-02-15T14:27:40;4.25;;;1.77;;
70385;SDS011;63206;55.650;37.500;2023-02-15T14:30:18;4.88;;;1.85;;
70385;SDS011;63206;55.650;37.500;2023-02-15T14:32:46;6.03;;;2.10;;
70385;SDS011;63206;55.650;37.500;2023-02-15T14:35:14;6.93;;;1.95;;
70385;SDS011;63206;55.650;37.500;2023-02-15T14:43:20;4.28;;;1.75;;
70385;SDS011;63206;55.650;37.500;2023-02-15T14:48:24;4.55;;;1.70;;
70385;SDS011;63206;55.650;37.500;2023-02-15T14:50:54;6.30;;;1.80;;
70385;SDS011;63206;55.650;37.500;2023-02-15T15:01:07;4.78;;;1.65;;
70385;SDS011;63206;55.650;37.500;2023-02-15T15:03:49;5.57;;;1.55;;
70385;SDS011;63206;55.650;37.500;2023-02-15T15:06:31;3.05;;;1.58;;
70385;SDS011;63206;55.650;37.500;2023-02-15T15:09:00;3.03;;;1.50;;
70385;SDS011;63206;55.650;37.500;2023-02-15T15:14:00;3.35;;;1.80;;
70385;SDS011;63206;55.650;37.500;2023-02-15T15:19:08;3.55;;;1.50;;
70385;SDS011;63206;55.650;37.500;2023-02-15T15:32:17;4.55;;;1.77;;
70385;SDS011;63206;55.650;37.500;2023-02-15T15:37:47;2.10;;;1.55;;
70385;SDS011;63206;55.650;37.500;2023-02-15T15:46:49;4.63;;;1.80;;
70385;SDS011;63206;55.650;37.500;2023-02-15T15:48:46;1.48;;;1.17;;
70385;SDS011;63206;55.650;37.500;2023-02-15T15:51:21;3.03;;;1.77;;
70385;SDS011;63206;55.650;37.500;2023-02-15T15:53:50;2.92;;;1.58;;
70385;SDS011;63206;55.650;37.500;2023-02-15T15:56:22;3.50;;;1.50;;
70385;SDS011;63206;55.650;37.500;2023-02-15T15:58:54;3.50;;;1.50;;
70385;SDS011;63206;55.650;37.500;2023-02-15T16:01:25;5.80;;;1.90;;
70385;SDS011;63206;55.650;37.500;2023-02-15T16:03:53;3.65;;;1.90;;
70385;SDS011;63206;55.650;37.500;2023-02-15T16:06:35;5.65;;;1.60;;
70385;SDS011;63206;55.650;37.500;2023-02-15T16:09:23;5.18;;;1.60;;
70385;SDS011;63206;55.650;37.500;2023-02-15T16:11:54;4.53;;;1.70;;
70385;SDS011;63206;55.650;37.500;2023-02-15T16:14:35;5.47;;;1.60;;
70385;SDS011;63206;55.650;37.500;2023-02-15T16:17:06;4.18;;;1.63;;
70385;SDS011;63206;55.650;37.500;2023-02-15T16:19:34;2.75;;;1.50;;
70385;SDS011;63206;55.650;37.500;2023-02-15T16:22:03;2.97;;;1.50;;
70385;SDS011;63206;55.650;37.500;2023-02-15T16:24:52;4.63;;;1.50;;
70385;SDS011;63206;55.650;37.500;2023-02-15T16:27:27;2.28;;;1.50;;
70385;SDS011;63206;55.650;37.500;2023-02-15T16:29:55;3.28;;;1.60;;
70385;SDS011;63206;55.650;37.500;2023-02-15T16:32:27;2.97;;;1.60;;
70385;SDS011;63206;55.650;37.500;2023-02-15T16:35:00;3.38;;;1.80;;
70385;SDS011;63206;55.650;37.500;2023-02-15T16:37:27;3.22;;;1.50;;
70385;SDS011;63206;55.650;37.500;2023-02-15T16:39:56;4.82;;;1.70;;
70385;SDS011;63206;55.650;37.500;2023-02-15T16:42:27;3.40;;;1.60;;
70385;SDS011;63206;55.650;37.500;2023-02-15T16:45:12;3.78;;;1.35;;
70385;SDS011;63206;55.650;37.500;2023-02-15T16:48:00;3.92;;;1.58;;
70385;SDS011;63206;55.650;37.500;2023-02-15T16:50:30;4.13;;;1.70;;
70385;SDS011;63206;55.650;37.500;2023-02-15T16:52:56;3.53;;;1.45;;
70385;SDS011;63206;55.650;37.500;2023-02-15T16:55:44;5.60;;;1.88;;
70385;SDS011;63206;55.650;37.500;2023-02-15T16:58:13;3.42;;;1.60;;
70385;SDS011;63206;55.650;37.500;2023-02-15T17:00:43;2.83;;;1.67;;
70385;SDS011;63206;55.650;37.500;2023-02-15T17:08:15;3.95;;;1.70;;
70385;SDS011;63206;55.650;37.500;2023-02-15T17:11:10;5.10;;;1.90;;
70385;SDS011;63206;55.650;37.500;2023-02-15T17:13:36;3.80;;;1.70;;
70385;SDS011;63206;55.650;37.500;2023-02-15T17:18:32;4.15;;;1.60;;
70385;SDS011;63206;55.650;37.500;2023-02-15T17:21:00;4.40;;;1.75;;
70385;SDS011;63206;55.650;37.500;2023-02-15T17:25:57;2.58;;;1.60;;
70385;SDS011;63206;55.650;37.500;2023-02-15T17:28:25;4.18;;;1.70;;
70385;SDS011;63206;55.650;37.500;2023-02-15T17:30:52;4.82;;;1.70;;
70385;SDS011;63206;55.650;37.500;2023-02-15T17:33:26;4.65;;;1.80;;
70385;SDS011;63206;55.650;37.500;2023-02-15T17:36:16;5.35;;;1.90;;
70385;SDS011;63206;55.650;37.500;2023-02-15T17:41:54;5.13;;;2.00;;
70385;SDS011;63206;55.650;37.500;2023-02-15T17:44:25;6.85;;;2.17;;
70385;SDS011;63206;55.650;37.500;2023-02-15T17:46:51;4.82;;;2.17;;
70385;SDS011;63206;55.650;37.500;2023-02-15T17:49:25;5.55;;;1.90;;
70385;SDS011;63206;55.650;37.500;2023-02-15T17:52:02;3.42;;;1.70;;
70385;SDS011;63206;55.650;37.500;2023-02-15T17:54:31;4.35;;;2.05;;
70385;SDS011;63206;55.650;37.500;2023-02-15T17:57:19;6.50;;;2.25;;
70385;SDS011;63206;55.650;37.500;2023-02-15T17:59:47;5.70;;;2.25;;
70385;SDS011;63206;55.650;37.500;2023-02-15T18:02:42;4.35;;;2.00;;
70385;SDS011;63206;55.650;37.500;2023-02-15T18:05:30;3.13;;;1.38;;
70385;SDS011;63206;55.650;37.500;2023-02-15T18:08:24;2.92;;;1.63;;
70385;SDS011;63206;55.650;37.500;2023-02-15T18:11:16;2.65;;;1.80;;
70385;SDS011;63206;55.650;37.500;2023-02-15T18:14:00;3.20;;;1.50;;
70385;SDS011;63206;55.650;37.500;2023-02-15T18:16:46;1.88;;;1.40;;
70385;SDS011;63206;55.650;37.500;2023-02-15T18:19:22;4.75;;;1.67;;
70385;SDS011;63206;55.650;37.500;2023-02-15T18:21:51;2.58;;;1.60;;
70385;SDS011;63206;55.650;37.500;2023-02-15T18:24:20;3.58;;;1.83;;